createdAt,value
2019-03-31T00:01:07.301Z,72.25
2019-03-31T00:03:23.119Z,71.00
2019-03-31T00:05:49.887Z,73.50
2019-03-31T00:08:16.649Z,72.95
2019-03-31T00:10:43.353Z,74.20
2019-03-31T00:13:10.193Z,71.02
2019-03-31T00:15:37.024Z,68.62
2019-03-31T00:18:04.174Z,73.10
2019-03-31T00:20:33.959Z,71.77
2019-03-31T00:23:00.809Z,70.83
2019-03-31T00:25:27.618Z,72.30
2019-03-31T00:27:54.387Z,70.85
2019-03-31T00:30:21.485Z,71.87
2019-03-31T00:32:48.239Z,76.35
2019-03-31T00:35:15.037Z,75.50
2019-03-31T00:37:41.809Z,76.92
2019-03-31T00:40:10.525Z,77.10
2019-03-31T00:42:37.376Z,78.87
2019-03-31T00:45:05.829Z,74.65
2019-03-31T00:47:32.605Z,73.78
2019-03-31T00:49:59.555Z,78.10
2019-03-31T00:52:26.345Z,78.50
2019-03-31T00:54:53.093Z,79.95
2019-03-31T00:57:19.841Z,76.25
2019-03-31T00:59:46.841Z,75.20
2019-03-31T01:02:17.346Z,74.87
2019-03-31T01:04:44.086Z,76.30
2019-03-31T01:07:10.832Z,73.65
2019-03-31T01:09:37.824Z,76.97
2019-03-31T01:12:04.647Z,72.65
2019-03-31T01:14:31.411Z,76.42
2019-03-31T01:16:59.650Z,73.70
2019-03-31T01:19:28.529Z,73.05
2019-03-31T01:21:55.350Z,70.45
2019-03-31T01:24:22.707Z,71.77
2019-03-31T01:26:49.419Z,69.72
2019-03-31T01:29:16.292Z,74.15
2019-03-31T01:31:50.300Z,71.28
2019-03-31T01:34:15.339Z,71.53
2019-03-31T01:36:42.210Z,70.97
2019-03-31T01:39:08.959Z,68.85
2019-03-31T01:41:35.893Z,68.70
2019-03-31T01:44:02.792Z,65.30
2019-03-31T01:46:29.603Z,60.50
2019-03-31T01:48:56.338Z,61.10
2019-03-31T01:51:23.392Z,58.55
2019-03-31T01:53:50.287Z,57.60
2019-03-31T01:56:17.319Z,58.52
2019-03-31T01:58:44.252Z,58.48
2019-03-31T02:01:12.910Z,57.15
2019-03-31T02:03:39.950Z,56.13
2019-03-31T02:06:07.493Z,58.70
2019-03-31T02:08:34.300Z,58.17
2019-03-31T02:11:01.003Z,59.48
2019-03-31T02:13:27.897Z,57.43
2019-03-31T02:15:54.724Z,60.10
2019-03-31T02:18:21.437Z,57.98
2019-03-31T02:20:48.154Z,59.00
2019-03-31T02:23:15.202Z,60.92
2019-03-31T02:25:41.958Z,59.40
2019-03-31T02:28:08.745Z,56.65
2019-03-31T02:30:35.522Z,53.68
2019-03-31T02:33:02.455Z,53.23
2019-03-31T02:35:29.310Z,51.42
2019-03-31T02:37:56.191Z,49.20
2019-03-31T02:40:22.972Z,50.00
2019-03-31T02:42:49.753Z,48.45
2019-03-31T02:45:16.693Z,49.08
2019-03-31T02:47:43.486Z,54.15
2019-03-31T02:50:14.033Z,56.08
2019-03-31T02:52:40.928Z,55.78
2019-03-31T02:55:07.689Z,55.85
2019-03-31T02:57:34.645Z,55.95
2019-03-31T03:00:01.618Z,55.23
2019-03-31T03:02:41.353Z,53.13
2019-03-31T03:04:57.313Z,57.08
2019-03-31T03:07:24.221Z,56.77
2019-03-31T03:09:51.255Z,55.03
2019-03-31T03:12:17.989Z,58.75
2019-03-31T03:14:45.348Z,60.20
2019-03-31T03:17:12.344Z,61.75
2019-03-31T03:19:39.107Z,61.08
2019-03-31T03:22:05.818Z,63.02
2019-03-31T03:24:33.570Z,62.25
2019-03-31T03:27:00.351Z,60.15
2019-03-31T03:29:27.118Z,59.83
2019-03-31T03:31:53.957Z,59.48
2019-03-31T03:34:21.151Z,59.58
2019-03-31T03:36:47.894Z,58.30
2019-03-31T03:39:14.734Z,55.67
2019-03-31T03:41:41.991Z,56.60
2019-03-31T03:44:08.786Z,56.42
2019-03-31T03:46:35.635Z,56.55
2019-03-31T03:49:02.493Z,56.63
2019-03-31T03:51:29.527Z,53.48
2019-03-31T03:53:57.241Z,54.38
2019-03-31T03:56:28.715Z,53.38
2019-03-31T03:58:52.730Z,55.28
2019-03-31T04:01:20.002Z,52.05
2019-03-31T04:03:46.709Z,53.40
2019-03-31T04:06:13.797Z,51.37
2019-03-31T04:08:40.735Z,47.08
2019-03-31T04:11:08.626Z,52.13
2019-03-31T04:13:35.389Z,51.53
2019-03-31T04:16:02.176Z,48.40
2019-03-31T04:18:29.024Z,48.42
2019-03-31T04:20:57.851Z,47.43
2019-03-31T04:23:24.867Z,47.35
2019-03-31T04:25:52.657Z,47.80
2019-03-31T04:28:19.420Z,48.50
2019-03-31T04:30:46.522Z,48.52
2019-03-31T04:33:13.257Z,49.23
2019-03-31T04:35:40.019Z,48.55
2019-03-31T04:38:06.780Z,48.68
2019-03-31T04:40:33.778Z,46.10
2019-03-31T04:43:00.595Z,40.23
2019-03-31T04:45:27.363Z,39.90
2019-03-31T04:47:54.410Z,38.35
2019-03-31T04:50:21.173Z,37.53
2019-03-31T04:52:47.959Z,37.88
2019-03-31T04:55:14.723Z,39.20
2019-03-31T04:57:41.553Z,41.37
2019-03-31T05:00:08.311Z,38.55
2019-03-31T05:02:35.061Z,37.83
2019-03-31T05:05:01.811Z,37.20
2019-03-31T05:07:28.610Z,38.53
2019-03-31T05:09:55.470Z,39.08
2019-03-31T05:12:22.209Z,39.05
2019-03-31T05:14:48.930Z,38.60
2019-03-31T05:17:16.327Z,39.50
2019-03-31T05:19:43.046Z,44.65
2019-03-31T05:22:09.788Z,46.23
2019-03-31T05:24:37.308Z,46.15
2019-03-31T05:27:04.053Z,48.10
2019-03-31T05:29:30.817Z,47.88
2019-03-31T05:31:57.774Z,46.73
2019-03-31T05:34:24.815Z,32.90
2019-03-31T05:36:51.576Z,31.45
2019-03-31T05:39:18.600Z,28.87
2019-03-31T05:41:45.456Z,35.80
2019-03-31T05:44:12.246Z,36.98
2019-03-31T05:46:39.025Z,38.65
2019-03-31T05:49:05.751Z,37.28
2019-03-31T05:51:32.818Z,33.90
2019-03-31T05:53:59.577Z,34.92
2019-03-31T05:56:26.952Z,31.60
2019-03-31T05:58:54.551Z,28.50
2019-03-31T06:01:21.458Z,29.52
2019-03-31T06:03:48.261Z,28.65
2019-03-31T06:06:15.014Z,26.95
2019-03-31T06:08:41.763Z,26.82
2019-03-31T06:11:08.581Z,30.95
2019-03-31T06:13:35.367Z,27.42
2019-03-31T06:16:02.125Z,27.40
2019-03-31T06:18:28.846Z,27.13
2019-03-31T06:20:55.545Z,27.75
2019-03-31T06:23:22.332Z,28.40
2019-03-31T06:25:49.186Z,30.52
2019-03-31T06:28:15.941Z,31.77
2019-03-31T06:30:42.705Z,35.60
2019-03-31T06:33:09.595Z,36.75
2019-03-31T06:35:36.385Z,38.23
2019-03-31T06:38:03.085Z,39.63
2019-03-31T06:40:29.874Z,38.65
2019-03-31T06:42:56.832Z,40.10
2019-03-31T06:45:23.579Z,43.33
2019-03-31T06:47:50.510Z,41.23
2019-03-31T06:50:18.419Z,43.48
2019-03-31T06:52:45.114Z,42.13
2019-03-31T06:55:12.406Z,36.60
2019-03-31T06:57:39.195Z,35.95
2019-03-31T07:00:06.546Z,33.40
2019-03-31T07:02:33.669Z,33.60
2019-03-31T07:05:01.791Z,30.92
2019-03-31T07:07:28.779Z,31.20
2019-03-31T07:09:55.595Z,29.65
2019-03-31T07:12:22.339Z,29.77
2019-03-31T07:14:49.128Z,30.50
2019-03-31T07:17:15.850Z,28.60
2019-03-31T07:19:42.765Z,27.75
2019-03-31T07:22:09.488Z,27.80
2019-03-31T07:24:36.233Z,27.35
2019-03-31T07:27:02.977Z,27.77
2019-03-31T07:29:30.191Z,29.95
2019-03-31T07:31:56.964Z,52.80
2019-03-31T07:34:23.701Z,28.23
2019-03-31T07:36:50.445Z,26.73
2019-03-31T07:39:17.408Z,26.75
2019-03-31T07:41:44.244Z,27.40
2019-03-31T07:44:11.243Z,29.55
2019-03-31T07:46:38.175Z,30.35
2019-03-31T07:49:05.227Z,29.52
2019-03-31T07:51:31.966Z,30.20
2019-03-31T07:53:58.976Z,28.42
2019-03-31T07:56:25.711Z,27.95
2019-03-31T07:58:52.554Z,27.98
2019-03-31T08:01:19.445Z,29.57
2019-03-31T08:03:46.246Z,30.12
2019-03-31T08:06:13.540Z,28.20
2019-03-31T08:08:40.592Z,27.45
2019-03-31T08:11:07.435Z,30.27
2019-03-31T08:13:34.146Z,27.15
2019-03-31T08:16:00.958Z,27.90
2019-03-31T08:18:27.787Z,27.65
2019-03-31T08:20:54.617Z,27.02
2019-03-31T08:23:22.501Z,30.12
2019-03-31T08:25:49.724Z,29.40
2019-03-31T08:28:16.707Z,26.45
2019-03-31T08:30:43.451Z,26.60
2019-03-31T08:33:10.310Z,25.95
2019-03-31T08:35:47.254Z,26.55
2019-03-31T08:38:05.891Z,26.73
2019-03-31T08:40:32.646Z,25.50
2019-03-31T08:42:59.568Z,24.57
2019-03-31T08:45:26.404Z,24.70
2019-03-31T08:47:53.138Z,25.43
2019-03-31T08:50:20.398Z,25.88
2019-03-31T08:52:47.160Z,25.20
2019-03-31T08:55:13.940Z,23.40
2019-03-31T08:57:40.735Z,24.02
2019-03-31T09:00:11.723Z,23.83
2019-03-31T09:02:38.482Z,23.73
2019-03-31T09:05:09.033Z,23.92
2019-03-31T09:07:35.912Z,25.77
2019-03-31T09:10:05.140Z,23.98
2019-03-31T09:14:58.941Z,25.05
2019-03-31T09:17:25.679Z,24.02
2019-03-31T09:19:52.459Z,25.60
2019-03-31T09:22:19.198Z,24.47
2019-03-31T09:24:46.216Z,28.05
2019-03-31T09:27:12.980Z,23.52
2019-03-31T09:29:39.735Z,22.20
2019-03-31T09:32:06.556Z,22.73
2019-03-31T09:34:33.358Z,24.60
2019-03-31T09:37:00.170Z,25.23
2019-03-31T09:39:26.895Z,23.55
2019-03-31T09:41:53.861Z,24.05
2019-03-31T09:44:20.729Z,22.82
2019-03-31T09:46:47.521Z,25.43
2019-03-31T09:49:14.297Z,24.43
2019-03-31T09:51:41.191Z,20.75
2019-03-31T09:54:07.986Z,21.25
2019-03-31T09:56:34.724Z,21.42
2019-03-31T09:59:01.511Z,21.48
2019-03-31T10:01:28.257Z,21.15
2019-03-31T10:03:55.027Z,22.10
2019-03-31T10:06:30.173Z,23.52
2019-03-31T10:08:51.134Z,22.20
2019-03-31T10:11:17.905Z,20.20
2019-03-31T10:13:44.623Z,20.00
2019-03-31T10:16:11.544Z,20.85
2019-03-31T10:18:40.186Z,25.75
2019-03-31T10:21:07.074Z,21.30
2019-03-31T10:23:33.818Z,19.62
2019-03-31T10:26:00.574Z,21.30
2019-03-31T10:28:27.364Z,20.37
2019-03-31T10:30:54.155Z,20.62
2019-03-31T10:33:21.066Z,20.90
2019-03-31T10:35:47.852Z,22.77
2019-03-31T10:38:14.589Z,21.10
2019-03-31T10:40:41.716Z,18.87
2019-03-31T10:43:08.768Z,17.50
2019-03-31T10:45:35.533Z,19.07
2019-03-31T10:48:02.502Z,19.15
2019-03-31T10:50:29.343Z,20.20
2019-03-31T10:52:56.045Z,19.15
2019-03-31T10:55:22.850Z,21.12
2019-03-31T10:57:49.644Z,21.15
2019-03-31T11:00:20.219Z,19.80
2019-03-31T11:02:47.081Z,20.72
2019-03-31T11:05:13.889Z,19.05
2019-03-31T11:07:40.699Z,18.10
2019-03-31T11:10:07.498Z,14.95
2019-03-31T11:12:34.274Z,15.32
2019-03-31T11:15:01.016Z,17.45
2019-03-31T11:17:27.773Z,15.95
2019-03-31T11:19:54.701Z,19.92
2019-03-31T11:22:26.329Z,30.80
2019-03-31T11:24:53.104Z,15.38
2019-03-31T11:27:19.879Z,16.70
2019-03-31T11:29:46.646Z,14.83
2019-03-31T11:32:13.492Z,14.00
2019-03-31T11:34:40.286Z,13.70
2019-03-31T11:37:13.572Z,14.18
2019-03-31T11:39:35.639Z,13.08
2019-03-31T11:42:02.699Z,11.40
2019-03-31T11:44:29.507Z,9.50
2019-03-31T11:46:56.346Z,9.53
2019-03-31T11:49:23.332Z,10.93
2019-03-31T11:51:50.175Z,11.45
2019-03-31T11:54:17.007Z,11.45
2019-03-31T11:56:43.759Z,10.13
2019-03-31T11:59:10.720Z,9.95
2019-03-31T12:01:37.471Z,9.28
2019-03-31T12:04:04.162Z,9.03
2019-03-31T12:06:30.883Z,9.90
2019-03-31T12:08:57.837Z,9.58
2019-03-31T12:11:24.652Z,8.45
2019-03-31T12:13:51.411Z,9.38
2019-03-31T12:16:18.218Z,9.55
2019-03-31T12:18:45.114Z,8.63
2019-03-31T12:21:11.827Z,9.00
2019-03-31T12:23:38.835Z,9.70
2019-03-31T12:26:05.600Z,9.35
2019-03-31T12:28:32.460Z,8.13
2019-03-31T12:30:59.196Z,9.78
2019-03-31T12:33:25.970Z,9.93
2019-03-31T12:35:52.970Z,11.53
2019-03-31T12:38:19.759Z,14.90
2019-03-31T12:40:46.482Z,11.38
2019-03-31T12:43:13.240Z,11.48
2019-03-31T12:45:42.929Z,11.22
2019-03-31T12:48:09.640Z,11.53
2019-03-31T12:50:36.369Z,11.33
2019-03-31T12:53:03.286Z,11.43
2019-03-31T12:55:30.398Z,11.35
2019-03-31T12:57:57.164Z,11.85
2019-03-31T13:00:23.921Z,12.30
2019-03-31T13:02:50.783Z,12.03
2019-03-31T13:05:17.611Z,12.65
2019-03-31T13:07:55.733Z,12.10
2019-03-31T13:10:13.342Z,12.58
2019-03-31T13:12:40.165Z,12.70
2019-03-31T13:15:06.958Z,12.65
2019-03-31T13:17:33.710Z,12.18
2019-03-31T13:20:01.075Z,12.75
2019-03-31T13:22:27.777Z,12.40
2019-03-31T13:24:54.577Z,11.53
2019-03-31T13:27:21.609Z,11.43
2019-03-31T13:29:48.391Z,12.53
2019-03-31T13:32:15.170Z,12.47
2019-03-31T13:34:42.874Z,11.48
2019-03-31T13:37:09.785Z,11.80
2019-03-31T13:39:36.553Z,12.00
2019-03-31T13:42:03.453Z,12.33
2019-03-31T13:44:30.250Z,11.80
2019-03-31T13:46:56.996Z,16.65
2019-03-31T13:49:24.330Z,18.82
2019-03-31T13:51:51.045Z,11.00
2019-03-31T13:54:17.764Z,11.55
2019-03-31T13:56:47.661Z,11.22
2019-03-31T13:59:13.332Z,10.75
2019-03-31T14:01:40.118Z,10.75
2019-03-31T14:04:06.821Z,10.70
2019-03-31T14:06:35.226Z,10.58
2019-03-31T14:09:03.596Z,12.10
2019-03-31T14:11:30.626Z,12.37
2019-03-31T14:13:57.405Z,13.38
2019-03-31T14:16:24.352Z,13.80
2019-03-31T14:18:51.410Z,13.95
2019-03-31T14:21:18.170Z,14.35
2019-03-31T14:23:44.946Z,13.75
2019-03-31T14:26:11.636Z,14.43
2019-03-31T14:28:38.899Z,15.03
2019-03-31T14:31:05.708Z,14.80
2019-03-31T14:33:32.535Z,14.23
2019-03-31T14:35:59.608Z,12.58
2019-03-31T14:38:39.587Z,11.93
2019-03-31T14:40:55.042Z,12.05
2019-03-31T14:43:21.860Z,11.03
2019-03-31T14:45:48.646Z,12.60
2019-03-31T14:48:15.457Z,12.98
2019-03-31T14:50:42.213Z,11.48
2019-03-31T14:53:08.949Z,28.23
2019-03-31T14:55:35.941Z,11.35
2019-03-31T14:58:02.864Z,11.88
2019-03-31T15:00:29.772Z,10.25
2019-03-31T15:02:56.563Z,10.35
2019-03-31T15:05:23.370Z,9.78
2019-03-31T15:07:50.370Z,10.00
2019-03-31T15:10:17.267Z,10.35
2019-03-31T15:12:44.041Z,8.95
2019-03-31T15:15:10.990Z,9.00
2019-03-31T15:17:38.097Z,8.98
2019-03-31T15:20:04.867Z,8.23
2019-03-31T15:22:31.716Z,8.63
2019-03-31T15:24:58.654Z,8.68
2019-03-31T15:27:25.603Z,9.20
2019-03-31T15:29:52.493Z,7.87
2019-03-31T15:32:19.354Z,8.95
2019-03-31T15:34:46.223Z,9.63
2019-03-31T15:37:13.165Z,10.32
2019-03-31T15:39:40.032Z,11.38
2019-03-31T15:42:06.907Z,12.50
2019-03-31T15:44:33.804Z,13.15
2019-03-31T15:47:00.745Z,12.90
2019-03-31T15:49:27.570Z,12.13
2019-03-31T15:51:54.376Z,10.58
2019-03-31T15:54:21.376Z,12.03
2019-03-31T15:56:48.221Z,10.95
2019-03-31T15:59:14.915Z,11.53
2019-03-31T16:01:41.837Z,14.40
2019-03-31T16:04:09.661Z,10.82
2019-03-31T16:06:36.690Z,11.15
2019-03-31T16:09:05.720Z,9.08
2019-03-31T16:11:32.470Z,9.33
2019-03-31T16:13:59.348Z,9.43
2019-03-31T16:16:26.242Z,8.93
2019-03-31T16:18:53.018Z,8.38
2019-03-31T16:21:19.772Z,9.68
2019-03-31T16:23:46.667Z,10.43
2019-03-31T16:26:13.528Z,7.60
2019-03-31T16:28:40.312Z,7.47
2019-03-31T16:31:07.095Z,8.23
2019-03-31T16:33:33.970Z,7.83
2019-03-31T16:36:00.906Z,8.05
2019-03-31T16:38:27.616Z,8.55
2019-03-31T16:40:54.662Z,9.00
2019-03-31T16:43:21.433Z,8.75
2019-03-31T16:45:48.314Z,9.38
2019-03-31T16:48:15.091Z,9.68
2019-03-31T16:50:41.937Z,9.50
2019-03-31T16:53:08.738Z,8.68
2019-03-31T16:55:35.445Z,8.80
2019-03-31T16:58:02.256Z,8.75
2019-03-31T17:00:29.061Z,10.40
2019-03-31T17:02:57.657Z,9.73
2019-03-31T17:05:24.483Z,10.65
2019-03-31T17:07:51.621Z,11.30
2019-03-31T17:10:18.359Z,10.95
2019-03-31T17:12:45.141Z,10.85
2019-03-31T17:15:12.691Z,11.75
2019-03-31T17:17:39.597Z,11.75
2019-03-31T17:20:06.323Z,12.03
2019-03-31T17:22:33.303Z,11.83
2019-03-31T17:25:00.043Z,14.23
2019-03-31T17:27:27.715Z,14.60
2019-03-31T17:29:54.661Z,15.08
2019-03-31T17:32:21.485Z,15.43
2019-03-31T17:34:48.394Z,16.02
2019-03-31T17:37:15.163Z,16.93
2019-03-31T17:39:41.952Z,17.25
2019-03-31T17:42:08.833Z,17.32
2019-03-31T17:44:35.611Z,18.48
2019-03-31T17:47:02.440Z,19.02
2019-03-31T17:49:29.621Z,19.32
2019-03-31T17:51:56.426Z,19.07
2019-03-31T17:54:23.202Z,19.50
2019-03-31T17:56:49.915Z,19.55
2019-03-31T17:59:16.755Z,20.80
2019-03-31T18:01:43.604Z,22.87
2019-03-31T18:04:10.398Z,20.05
2019-03-31T18:06:37.571Z,21.37
2019-03-31T18:09:07.061Z,22.48
2019-03-31T18:11:34.075Z,20.10
2019-03-31T18:14:00.874Z,22.02
2019-03-31T18:16:27.705Z,21.35
2019-03-31T18:18:54.435Z,21.45
2019-03-31T18:21:21.336Z,22.95
2019-03-31T18:23:48.083Z,22.73
2019-03-31T18:26:14.840Z,23.80
2019-03-31T18:28:43.764Z,23.25
2019-03-31T18:31:10.396Z,23.02
2019-03-31T18:33:37.189Z,21.60
2019-03-31T18:36:03.979Z,23.22
2019-03-31T18:38:30.958Z,24.98
2019-03-31T18:40:58.097Z,22.87
2019-03-31T18:43:24.969Z,23.92
2019-03-31T18:45:51.889Z,23.15
2019-03-31T18:48:18.761Z,22.35
2019-03-31T18:50:45.592Z,21.75
2019-03-31T18:53:14.261Z,24.37
2019-03-31T18:55:43.425Z,23.47
2019-03-31T18:58:21.323Z,22.17
2019-03-31T19:00:53.092Z,23.47
2019-03-31T19:03:38.212Z,22.37
2019-03-31T19:06:19.220Z,22.27
2019-03-31T19:08:47.843Z,23.22
2019-03-31T19:11:16.582Z,23.30
2019-03-31T19:14:03.723Z,23.45
2019-03-31T19:16:35.117Z,22.20
2019-03-31T19:19:17.853Z,21.70
2019-03-31T19:21:47.060Z,20.65
2019-03-31T19:24:18.583Z,20.88
2019-03-31T19:27:04.002Z,20.85
2019-03-31T19:29:49.396Z,18.40
2019-03-31T19:32:21.401Z,18.57
2019-03-31T19:35:08.457Z,18.42
2019-03-31T19:37:43.229Z,17.07
2019-03-31T19:40:12.425Z,15.98
2019-03-31T19:42:56.184Z,16.73
2019-03-31T19:45:27.835Z,16.32
2019-03-31T19:47:59.704Z,16.00
2019-03-31T19:50:44.892Z,16.27
2019-03-31T19:53:30.410Z,16.07
2019-03-31T19:56:07.808Z,16.77
2019-03-31T19:58:32.925Z,16.82
2019-03-31T20:01:04.643Z,16.87
2019-03-31T20:03:39.815Z,16.60
2019-03-31T20:06:20.678Z,17.20
2019-03-31T20:08:55.487Z,18.62
2019-03-31T20:11:33.049Z,18.48
2019-03-31T20:14:10.888Z,19.98
2019-03-31T20:16:45.452Z,19.50
2019-03-31T20:19:16.964Z,19.77
2019-03-31T20:22:02.429Z,17.82
2019-03-31T20:24:31.392Z,18.55
2019-03-31T20:27:18.439Z,18.27
2019-03-31T20:29:56.197Z,18.05
2019-03-31T20:32:34.134Z,18.45
2019-03-31T20:35:10.246Z,19.52
2019-03-31T20:37:41.887Z,18.40
2019-03-31T20:40:16.794Z,19.15
2019-03-31T20:42:48.448Z,18.98
2019-03-31T20:45:15.261Z,18.10
2019-03-31T20:47:42.174Z,18.85
2019-03-31T20:50:08.973Z,19.27
2019-03-31T20:52:35.961Z,19.73
2019-03-31T20:55:15.683Z,18.17
2019-03-31T20:57:32.279Z,17.77
2019-03-31T20:59:59.066Z,18.60
2019-03-31T21:02:25.849Z,17.55
2019-03-31T21:04:52.712Z,18.12
2019-03-31T21:07:19.598Z,16.87
2019-03-31T21:09:46.368Z,18.45
2019-03-31T21:12:13.226Z,18.27
2019-03-31T21:14:39.978Z,18.52
2019-03-31T21:17:06.791Z,17.87
2019-03-31T21:19:33.547Z,18.17
2019-03-31T21:22:00.313Z,19.00
2019-03-31T21:24:27.143Z,18.77
2019-03-31T21:26:53.914Z,18.37
2019-03-31T21:29:20.944Z,18.05
2019-03-31T21:31:47.888Z,18.27
2019-03-31T21:34:14.764Z,17.87
2019-03-31T21:36:41.537Z,18.30
2019-03-31T21:39:08.306Z,17.73
2019-03-31T21:41:35.056Z,17.75
2019-03-31T21:44:02.001Z,17.70
2019-03-31T21:46:28.780Z,17.60
2019-03-31T21:48:55.502Z,18.82
2019-03-31T21:51:22.398Z,18.25
2019-03-31T21:53:49.860Z,17.65
2019-03-31T21:56:16.702Z,16.67
2019-03-31T21:58:43.409Z,16.67
2019-03-31T22:01:10.392Z,16.45
2019-03-31T22:03:37.422Z,17.77
2019-03-31T22:06:04.217Z,17.12
2019-03-31T22:08:31.032Z,17.92
2019-03-31T22:10:57.986Z,17.23
2019-03-31T22:13:24.903Z,16.12
2019-03-31T22:15:51.667Z,17.55
2019-03-31T22:18:18.404Z,15.88
2019-03-31T22:20:47.282Z,15.88
2019-03-31T22:23:13.968Z,15.75
2019-03-31T22:25:40.745Z,14.68
2019-03-31T22:28:07.588Z,16.07
2019-03-31T22:30:35.118Z,17.05
2019-03-31T22:33:01.888Z,16.05
2019-03-31T22:35:28.608Z,16.35
2019-03-31T22:37:55.463Z,15.80
2019-03-31T22:40:22.324Z,15.53
2019-03-31T22:42:49.083Z,15.85
2019-03-31T22:45:15.815Z,15.90
2019-03-31T22:47:42.630Z,16.02
2019-03-31T22:50:09.499Z,15.50
2019-03-31T22:52:36.311Z,15.48
2019-03-31T22:55:05.073Z,14.13
2019-03-31T22:57:31.779Z,14.13
2019-03-31T22:59:58.563Z,15.25
2019-03-31T23:02:25.350Z,14.13
2019-03-31T23:04:52.106Z,15.18
2019-03-31T23:07:18.859Z,13.90
2019-03-31T23:09:45.583Z,13.78
2019-03-31T23:12:13.034Z,13.55
2019-03-31T23:14:39.767Z,13.32
2019-03-31T23:17:06.512Z,13.43
2019-03-31T23:19:33.489Z,14.18
2019-03-31T23:22:00.259Z,12.88
2019-03-31T23:24:27.024Z,13.08
2019-03-31T23:26:54.172Z,12.50
2019-03-31T23:29:20.895Z,11.95
2019-03-31T23:31:47.632Z,11.88
2019-03-31T23:34:14.404Z,12.37
2019-03-31T23:36:41.178Z,11.93
2019-03-31T23:39:08.024Z,10.80
2019-03-31T23:41:34.802Z,10.80
2019-03-31T23:44:01.535Z,11.45
2019-03-31T23:46:28.341Z,10.98
2019-03-31T23:48:55.140Z,11.38
2019-03-31T23:51:21.909Z,10.00
2019-03-31T23:53:48.689Z,9.20
2019-03-31T23:56:15.507Z,9.28
2019-03-31T23:58:42.317Z,8.98
